Time;durP1;ratioP1;P1;durP2;ratioP2;P2;SDS_P1;SDS_P2;PMS_P1;PMS_P2;Temp;Humidity;BMP_temperature;BMP_pressure;BME280_temperature;BME280_humidity;BME280_pressure;Samples;Min_cycle;Max_cycle;Signal;HPM_P1;HPM_P2
2023/12/01 00:00:00;;;;;;;35.92;17.63;;;-0.10;99.90;;;;;;4882229;28;88845;-30
2023/12/01 00:02:26;;;;;;;32.75;14.52;;;-0.10;99.90;;;;;;4882938;28;89942;-33
2023/12/01 00:04:52;;;;;;;29.85;14.00;;;-0.20;99.90;;;;;;4881146;28;91437;-29
2023/12/01 00:07:18;;;;;;;29.23;14.25;;;-0.10;99.90;;;;;;4882394;28;90574;-33
2023/12/01 00:09:44;;;;;;;29.27;13.73;;;0.00;99.90;;;;;;4881730;28;88828;-30
2023/12/01 00:12:09;;;;;;;30.50;14.95;;;0.10;99.90;;;;;;4882265;28;90504;-33
2023/12/01 00:14:35;;;;;;;26.92;11.30;;;0.10;99.90;;;;;;4881289;28;90864;-32
2023/12/01 00:17:01;;;;;;;28.77;16.45;;;0.10;99.90;;;;;;4882765;28;90807;-31
2023/12/01 00:19:26;;;;;;;23.88;12.38;;;0.10;99.90;;;;;;4881809;28;88886;-30
2023/12/01 00:21:52;;;;;;;35.78;13.75;;;0.10;99.90;;;;;;4882825;28;89574;-32
2023/12/01 00:24:18;;;;;;;44.47;15.93;;;0.00;99.90;;;;;;4880607;28;90996;-33
2023/12/01 00:26:45;;;;;;;23.10;13.50;;;-0.10;99.90;;;;;;4883298;28;89630;-30
2023/12/01 00:29:11;;;;;;;37.30;18.70;;;-0.10;99.90;;;;;;4881904;28;90021;-30
2023/12/01 00:31:37;;;;;;;40.47;18.40;;;-0.10;99.90;;;;;;4882663;28;90217;-31
2023/12/01 00:34:02;;;;;;;29.70;15.25;;;-0.20;99.90;;;;;;4879137;28;89746;-33
2023/12/01 00:36:28;;;;;;;28.48;14.00;;;-0.30;99.90;;;;;;4864123;28;89469;-32
2023/12/01 00:38:54;;;;;;;32.75;15.13;;;-0.30;99.90;;;;;;4878613;28;89843;-32
2023/12/01 00:41:19;;;;;;;25.38;14.27;;;-0.20;99.90;;;;;;4874424;28;90239;-30
2023/12/01 00:43:45;;;;;;;25.80;12.32;;;-0.20;99.90;;;;;;4864380;28;89715;-32
2023/12/01 00:46:10;;;;;;;24.10;13.93;;;-0.30;99.90;;;;;;4864734;28;89783;-30
2023/12/01 00:48:36;;;;;;;23.58;11.05;;;-0.30;99.90;;;;;;4864805;28;88793;-30
2023/12/01 00:51:02;;;;;;;21.05;12.10;;;-0.20;99.90;;;;;;4864835;28;89003;-33
2023/12/01 00:53:29;;;;;;;25.67;14.85;;;-0.20;99.90;;;;;;4864990;28;89247;-30
2023/12/01 00:55:54;;;;;;;23.48;14.00;;;-0.20;99.90;;;;;;4862903;28;89509;-30
2023/12/01 00:58:20;;;;;;;26.25;9.60;;;-0.30;99.90;;;;;;4865864;28;89294;-33
2023/12/01 01:00:46;;;;;;;26.48;14.90;;;-0.20;99.90;;;;;;4864531;28;90457;-32
2023/12/01 01:03:11;;;;;;;22.33;11.38;;;-0.20;99.90;;;;;;4865267;28;90190;-30
2023/12/01 01:05:37;;;;;;;23.15;11.52;;;-0.20;99.90;;;;;;4864727;28;92212;-31
2023/12/01 01:08:02;;;;;;;20.40;12.43;;;-0.20;99.90;;;;;;4865792;28;89573;-32
2023/12/01 01:10:28;;;;;;;23.05;11.60;;;-0.20;99.90;;;;;;4865492;28;90322;-30
2023/12/01 01:12:53;;;;;;;24.60;11.50;;;-0.10;99.90;;;;;;4874805;28;89917;-34
2023/12/01 01:15:19;;;;;;;21.15;11.82;;;-0.20;99.90;;;;;;4864939;28;89644;-33
2023/12/01 01:17:45;;;;;;;19.00;9.70;;;-0.30;99.90;;;;;;4869103;28;89120;-33
2023/12/01 01:20:11;;;;;;;23.48;10.73;;;-0.20;99.90;;;;;;4871550;28;90074;-30
2023/12/01 01:22:37;;;;;;;23.13;11.68;;;-0.30;99.90;;;;;;4876692;28;90173;-30
2023/12/01 01:25:06;;;;;;;17.80;9.70;;;-0.40;99.90;;;;;;4874118;28;89540;-31
2023/12/01 01:27:32;;;;;;;19.25;13.35;;;-0.40;99.90;;;;;;4880911;28;89277;-32
2023/12/01 01:29:58;;;;;;;26.02;11.32;;;-0.50;99.90;;;;;;4872282;28;89884;-33
2023/12/01 01:32:24;;;;;;;22.90;11.02;;;-0.60;99.90;;;;;;4862613;28;90177;-28
2023/12/01 01:34:50;;;;;;;21.02;12.20;;;-0.60;99.90;;;;;;4863566;28;89524;-30
2023/12/01 01:37:15;;;;;;;18.13;11.68;;;-0.70;99.90;;;;;;4864185;28;89790;-31
2023/12/01 01:39:41;;;;;;;23.02;11.13;;;-0.70;99.90;;;;;;4872111;28;89187;-33
2023/12/01 01:42:07;;;;;;;22.75;12.45;;;-0.60;99.90;;;;;;4879318;28;89668;-30
2023/12/01 01:44:33;;;;;;;18.10;9.57;;;-0.60;99.90;;;;;;4864589;28;89228;-31
2023/12/01 01:46:59;;;;;;;17.88;11.60;;;-0.60;99.90;;;;;;4866571;28;89618;-33
2023/12/01 01:49:28;;;;;;;12.63;8.80;;;-0.70;99.90;;;;;;4863825;28;90575;-30
2023/12/01 01:51:55;;;;;;;22.08;10.85;;;-0.70;99.90;;;;;;4867871;28;89533;-33
2023/12/01 01:54:23;;;;;;;19.10;10.25;;;-0.70;99.90;;;;;;4872670;28;90902;-33
2023/12/01 01:56:51;;;;;;;18.85;11.18;;;-0.80;99.90;;;;;;4866411;28;88929;-31
2023/12/01 01:59:21;;;;;;;32.95;13.52;;;-0.80;99.90;;;;;;4864505;28;89051;-34
2023/12/01 02:01:51;;;;;;;15.60;6.85;;;-0.80;99.90;;;;;;4869929;28;89648;-31
2023/12/01 02:04:17;;;;;;;17.27;13.43;;;-0.80;99.90;;;;;;4871230;28;89701;-32
2023/12/01 02:06:45;;;;;;;13.82;9.43;;;-1.10;99.90;;;;;;4877274;28;90227;-32
2023/12/01 02:09:15;;;;;;;23.20;12.35;;;-0.90;99.90;;;;;;4865907;28;90260;-30
2023/12/01 02:11:41;;;;;;;23.02;10.15;;;-1.00;99.90;;;;;;4864621;28;89513;-31
2023/12/01 02:14:07;;;;;;;21.92;11.80;;;-1.10;99.90;;;;;;4865761;28;90015;-30
2023/12/01 02:16:33;;;;;;;24.90;14.70;;;-1.10;99.90;;;;;;4871459;28;89484;-30
2023/12/01 02:18:59;;;;;;;18.50;9.13;;;-1.10;99.90;;;;;;4870929;28;90638;-31
2023/12/01 02:21:26;;;;;;;23.38;11.38;;;-1.00;99.90;;;;;;4870510;28;89963;-31
2023/12/01 02:23:52;;;;;;;26.80;11.85;;;-1.00;99.90;;;;;;4871366;28;90503;-31
2023/12/01 02:26:18;;;;;;;16.27;8.45;;;-1.00;99.90;;;;;;4864908;28;88651;-33
2023/12/01 02:28:43;;;;;;;16.95;10.73;;;-0.90;99.90;;;;;;4878876;28;89473;-31
2023/12/01 02:31:09;;;;;;;23.25;9.85;;;-1.00;99.90;;;;;;4879818;28;89515;-31
2023/12/01 02:33:35;;;;;;;19.10;8.93;;;-1.00;99.90;;;;;;4882172;28;89321;-30
2023/12/01 02:36:03;;;;;;;18.95;12.45;;;-1.10;99.90;;;;;;4881318;28;88206;-33
2023/12/01 02:38:29;;;;;;;26.98;12.65;;;-1.20;99.90;;;;;;4880496;28;90541;-31
2023/12/01 02:40:54;;;;;;;21.25;11.40;;;-1.30;99.90;;;;;;4879570;28;90852;-34
2023/12/01 02:43:21;;;;;;;19.52;9.50;;;-1.30;99.90;;;;;;4880695;28;90554;-33
2023/12/01 02:45:47;;;;;;;16.85;9.07;;;-1.40;99.90;;;;;;4881147;28;88518;-31
2023/12/01 02:48:14;;;;;;;27.55;13.63;;;-1.40;99.90;;;;;;4881103;28;90311;-30
2023/12/01 02:50:39;;;;;;;25.02;12.73;;;-1.40;99.90;;;;;;4880893;28;90161;-32
2023/12/01 02:53:06;;;;;;;17.05;9.27;;;-1.50;99.90;;;;;;4879850;28;89242;-30
2023/12/01 02:55:31;;;;;;;23.10;13.63;;;-1.50;99.90;;;;;;4882616;28;89426;-32
2023/12/01 02:57:57;;;;;;;17.15;12.48;;;-1.50;99.90;;;;;;4879254;28;90380;-31
2023/12/01 03:00:24;;;;;;;22.63;10.15;;;-1.50;99.90;;;;;;4882915;28;89095;-31
2023/12/01 03:02:50;;;;;;;21.77;11.30;;;-1.50;99.90;;;;;;4882360;28;89909;-30
2023/12/01 03:05:16;;;;;;;17.65;9.85;;;-1.50;99.90;;;;;;4871739;28;90460;-31
2023/12/01 03:07:42;;;;;;;22.17;11.60;;;-1.60;99.90;;;;;;4870852;28;90862;-33
2023/12/01 03:10:08;;;;;;;17.85;10.35;;;-1.60;99.90;;;;;;4864623;28;89641;-32
2023/12/01 03:12:34;;;;;;;20.48;10.82;;;-1.60;99.90;;;;;;4866062;28;89601;-31
2023/12/01 03:15:00;;;;;;;21.88;10.13;;;-1.60;99.90;;;;;;4884205;28;88998;-30
2023/12/01 03:17:26;;;;;;;16.58;6.97;;;-1.60;99.90;;;;;;4870230;28;90295;-32
2023/12/01 03:19:52;;;;;;;20.42;11.13;;;-1.70;99.90;;;;;;4879928;28;90612;-32
2023/12/01 03:22:18;;;;;;;18.90;10.65;;;-1.60;99.90;;;;;;4883853;28;89440;-31
2023/12/01 03:24:47;;;;;;;26.00;11.07;;;-1.70;99.90;;;;;;4883302;28;88303;-30
2023/12/01 03:27:14;;;;;;;18.10;11.27;;;-1.80;99.90;;;;;;4883026;28;91384;-32
2023/12/01 03:29:40;;;;;;;27.73;12.80;;;-1.80;99.90;;;;;;4883165;28;90699;-34
2023/12/01 03:32:05;;;;;;;22.60;13.48;;;-1.80;99.90;;;;;;4882485;28;90027;-31
2023/12/01 03:34:31;;;;;;;30.63;14.15;;;-1.90;99.90;;;;;;4884290;28;87997;-34
2023/12/01 03:36:58;;;;;;;21.55;13.55;;;-1.80;99.90;;;;;;4884454;28;89263;-32
2023/12/01 03:39:23;;;;;;;28.38;14.45;;;-1.80;99.90;;;;;;4882676;28;89705;-31
2023/12/01 03:41:49;;;;;;;27.45;12.13;;;-1.70;99.90;;;;;;4882973;28;88795;-30
2023/12/01 03:44:15;;;;;;;26.67;14.63;;;-1.80;99.90;;;;;;4883179;28;88418;-30
2023/12/01 03:46:41;;;;;;;18.92;9.23;;;-1.80;99.90;;;;;;4883025;28;90428;-33
2023/12/01 03:49:06;;;;;;;28.88;13.57;;;-1.70;99.90;;;;;;4883450;28;90110;-31
2023/12/01 03:51:32;;;;;;;23.50;12.77;;;-1.70;99.90;;;;;;4882111;28;89400;-35
2023/12/01 03:53:58;;;;;;;26.52;13.13;;;-1.80;99.90;;;;;;4882314;28;88997;-34
2023/12/01 03:56:24;;;;;;;23.80;14.70;;;-1.70;99.90;;;;;;4882548;28;91172;-31
2023/12/01 03:58:54;;;;;;;26.65;14.07;;;-1.60;99.90;;;;;;4882547;28;89738;-32
2023/12/01 04:01:20;;;;;;;32.35;14.75;;;-1.80;99.90;;;;;;4882859;28;90244;-33
2023/12/01 04:03:46;;;;;;;28.33;14.07;;;-1.80;99.90;;;;;;4874512;28;87830;-32
2023/12/01 04:06:11;;;;;;;25.40;14.50;;;-1.90;99.90;;;;;;4882055;28;90576;-31
2023/12/01 04:08:37;;;;;;;24.58;13.50;;;-1.80;99.90;;;;;;4883192;28;89661;-31
2023/12/01 04:11:04;;;;;;;25.63;14.20;;;-1.80;99.90;;;;;;4881730;28;89837;-31
2023/12/01 04:13:29;;;;;;;28.35;14.93;;;-1.70;99.90;;;;;;4882497;28;88472;-30
2023/12/01 04:15:55;;;;;;;23.92;11.98;;;-1.60;99.90;;;;;;4882167;28;90734;-31
2023/12/01 04:18:21;;;;;;;25.00;13.10;;;-1.70;99.90;;;;;;4880846;28;90457;-30
2023/12/01 04:20:47;;;;;;;29.58;14.15;;;-1.70;99.90;;;;;;4881806;28;90256;-33
2023/12/01 04:23:14;;;;;;;24.70;12.82;;;-1.80;99.90;;;;;;4881068;28;89398;-33
2023/12/01 04:25:46;;;;;;;22.50;11.93;;;-1.80;99.90;;;;;;4879978;28;89878;-30
2023/12/01 04:28:13;;;;;;;28.00;13.00;;;-1.80;99.90;;;;;;4881767;28;88953;-29
2023/12/01 04:30:39;;;;;;;32.65;15.75;;;-1.90;99.90;;;;;;4869471;28;89395;-34
2023/12/01 04:33:05;;;;;;;30.15;15.20;;;-1.90;99.90;;;;;;4882918;28;89869;-30
2023/12/01 04:35:33;;;;;;;28.30;18.52;;;-1.90;99.90;;;;;;4882028;28;90150;-30
2023/12/01 04:38:00;;;;;;;22.48;12.57;;;-1.90;99.90;;;;;;4881757;28;89360;-31
2023/12/01 04:40:27;;;;;;;24.25;12.70;;;-1.90;99.90;;;;;;4866751;28;89126;-33
2023/12/01 04:42:57;;;;;;;30.58;16.35;;;-1.90;99.90;;;;;;4872760;28;93795;-35
2023/12/01 04:45:25;;;;;;;35.47;16.35;;;-2.00;99.90;;;;;;4866695;28;91466;-33
2023/12/01 04:47:51;;;;;;;31.08;12.98;;;-2.00;99.90;;;;;;4863745;28;91557;-30
2023/12/01 04:50:22;;;;;;;32.35;17.10;;;-2.00;99.90;;;;;;4863163;28;89643;-31
2023/12/01 04:52:50;;;;;;;24.17;11.95;;;-2.00;99.90;;;;;;4863703;28;89638;-34
2023/12/01 04:55:18;;;;;;;23.88;14.52;;;-2.10;99.90;;;;;;4863453;28;90192;-34
2023/12/01 04:57:45;;;;;;;19.35;12.13;;;-2.00;99.90;;;;;;4864256;28;89997;-31
2023/12/01 05:00:22;;;;;;;26.05;11.38;;;-2.00;99.90;;;;;;4863181;28;89769;-32
2023/12/01 05:02:51;;;;;;;20.55;13.73;;;-2.10;99.90;;;;;;4863278;28;90258;-31
2023/12/01 05:05:27;;;;;;;26.80;13.85;;;-2.20;99.90;;;;;;4863614;28;89995;-31
2023/12/01 05:07:57;;;;;;;18.73;11.60;;;-2.20;99.90;;;;;;4863290;28;90648;-36
2023/12/01 05:10:24;;;;;;;20.40;11.27;;;-2.40;99.90;;;;;;4874081;28;90262;-30
2023/12/01 05:12:54;;;;;;;23.53;12.60;;;-2.40;99.90;;;;;;4869292;28;88900;-30
2023/12/01 05:15:25;;;;;;;29.13;13.65;;;-2.40;99.90;;;;;;4871643;28;89887;-32
2023/12/01 05:17:52;;;;;;;30.45;12.73;;;-2.30;99.90;;;;;;4867135;28;89587;-29
2023/12/01 05:20:19;;;;;;;21.25;13.05;;;-2.30;99.90;;;;;;4870157;28;90282;-32
2023/12/01 05:22:47;;;;;;;21.80;11.82;;;-2.30;99.90;;;;;;4868429;28;88602;-33
2023/12/01 05:25:14;;;;;;;29.10;14.37;;;-2.30;99.90;;;;;;4869034;28;90013;-32
2023/12/01 05:27:50;;;;;;;29.48;12.07;;;-2.40;99.90;;;;;;4869882;28;89527;-30
2023/12/01 05:30:20;;;;;;;29.00;13.82;;;-2.40;99.90;;;;;;4880771;28;89602;-29
2023/12/01 05:32:48;;;;;;;29.92;15.10;;;-2.40;99.90;;;;;;4880799;28;88745;-33
2023/12/01 05:35:15;;;;;;;22.17;12.07;;;-2.40;99.90;;;;;;4863106;28;90790;-34
2023/12/01 05:37:52;;;;;;;21.77;10.30;;;-2.30;99.90;;;;;;4862552;28;89268;-30
2023/12/01 05:40:23;;;;;;;24.88;11.93;;;-2.30;99.90;;;;;;4875247;28;88995;-32
2023/12/01 05:42:52;;;;;;;26.88;13.95;;;-2.40;99.90;;;;;;4870660;28;88160;-30
2023/12/01 05:45:20;;;;;;;18.63;10.60;;;-2.40;99.90;;;;;;4880885;28;88971;-32
2023/12/01 05:47:46;;;;;;;16.73;8.18;;;-2.30;99.90;;;;;;4880051;28;89713;-30
2023/12/01 05:50:17;;;;;;;14.32;11.77;;;-2.40;99.90;;;;;;4865924;28;90878;-30
2023/12/01 05:52:45;;;;;;;19.55;11.93;;;-2.40;99.90;;;;;;4863726;28;89460;-31
2023/12/01 05:55:16;;;;;;;22.67;12.00;;;-2.40;99.90;;;;;;4862025;28;89720;-31
2023/12/01 05:57:46;;;;;;;19.70;11.48;;;-2.40;99.90;;;;;;4862217;28;90653;-30
2023/12/01 06:00:15;;;;;;;22.10;11.68;;;-2.50;99.90;;;;;;4862272;28;90803;-32
2023/12/01 06:02:45;;;;;;;20.00;10.32;;;-2.50;99.90;;;;;;4862683;28;89696;-29
2023/12/01 06:05:11;;;;;;;19.08;10.30;;;-2.50;99.90;;;;;;4862789;28;90838;-30
2023/12/01 06:07:38;;;;;;;21.75;9.50;;;-2.50;99.90;;;;;;4863572;28;89799;-33
2023/12/01 06:10:05;;;;;;;18.02;10.55;;;-2.50;99.90;;;;;;4874282;28;89645;-32
2023/12/01 06:12:33;;;;;;;23.90;7.93;;;-2.50;99.90;;;;;;4863149;28;89216;-29
2023/12/01 06:14:59;;;;;;;15.98;9.40;;;-2.60;99.90;;;;;;4863379;28;90090;-31
2023/12/01 06:17:24;;;;;;;21.52;10.80;;;-2.60;99.90;;;;;;4861863;28;90374;-31
2023/12/01 06:19:50;;;;;;;23.35;11.57;;;-2.60;99.90;;;;;;4862800;28;89259;-33
2023/12/01 06:22:16;;;;;;;18.23;9.27;;;-2.70;99.90;;;;;;4864349;28;88075;-31
2023/12/01 06:24:42;;;;;;;19.42;10.82;;;-2.70;99.90;;;;;;4873142;28;90580;-31
2023/12/01 06:27:08;;;;;;;19.85;8.85;;;-2.70;99.90;;;;;;4876266;28;89398;-32
2023/12/01 06:29:34;;;;;;;20.75;9.45;;;-2.70;99.90;;;;;;4880553;28;89461;-34
2023/12/01 06:32:00;;;;;;;23.05;10.27;;;-2.80;99.90;;;;;;4881784;28;89102;-31
2023/12/01 06:34:26;;;;;;;17.02;8.20;;;-2.80;99.90;;;;;;4879623;28;89810;-31
2023/12/01 06:36:51;;;;;;;15.68;9.30;;;-2.80;99.90;;;;;;4881284;28;90079;-32
2023/12/01 06:39:17;;;;;;;22.27;11.43;;;-2.90;99.90;;;;;;4868308;28;89982;-31
2023/12/01 06:41:43;;;;;;;18.02;10.73;;;-2.90;99.90;;;;;;4867846;28;88865;-31
2023/12/01 06:44:09;;;;;;;19.98;9.75;;;-2.90;99.90;;;;;;4874259;28;90144;-30
2023/12/01 06:46:35;;;;;;;21.73;11.45;;;-3.00;99.90;;;;;;4861707;28;90067;-34
2023/12/01 06:49:01;;;;;;;17.75;11.00;;;-3.00;99.90;;;;;;4861266;28;90905;-33
2023/12/01 06:51:26;;;;;;;15.27;10.65;;;-3.00;99.90;;;;;;4862304;28;89167;-32
2023/12/01 06:53:52;;;;;;;21.00;10.05;;;-3.00;99.90;;;;;;4866138;28;89916;-34
2023/12/01 06:56:18;;;;;;;28.63;12.63;;;-3.00;99.90;;;;;;4867630;28;90540;-32
2023/12/01 06:58:43;;;;;;;19.92;10.20;;;-3.10;99.90;;;;;;4868000;28;89650;-32
2023/12/01 07:01:18;;;;;;;18.48;9.10;;;-3.10;99.90;;;;;;4880665;28;89407;-33
2023/12/01 07:03:44;;;;;;;20.38;11.20;;;-3.10;99.90;;;;;;4881248;28;90394;-31
2023/12/01 07:06:10;;;;;;;18.70;9.90;;;-3.10;99.90;;;;;;4878127;28;89347;-32
2023/12/01 07:08:36;;;;;;;14.50;7.80;;;-3.10;99.90;;;;;;4881022;28;89212;-31
2023/12/01 07:11:03;;;;;;;14.52;9.57;;;-3.00;99.90;;;;;;4864882;28;91736;-33
2023/12/01 07:13:29;;;;;;;13.43;7.28;;;-3.00;99.90;;;;;;4871517;28;90545;-34
2023/12/01 07:15:58;;;;;;;20.67;9.27;;;-3.00;99.90;;;;;;4880761;28;89733;-30
2023/12/01 07:18:24;;;;;;;15.45;8.52;;;-3.00;99.90;;;;;;4879993;28;91091;-30
2023/12/01 07:20:50;;;;;;;15.98;7.65;;;-3.10;99.90;;;;;;4876368;28;88350;-31
2023/12/01 07:23:19;;;;;;;19.52;11.10;;;-3.10;99.90;;;;;;4880946;28;89985;-30
2023/12/01 07:25:47;;;;;;;16.95;8.27;;;-3.10;99.90;;;;;;4879729;28;89045;-31
2023/12/01 07:28:13;;;;;;;15.63;7.80;;;-3.00;99.90;;;;;;4880305;28;89388;-31
2023/12/01 07:30:41;;;;;;;21.25;9.07;;;-3.00;99.90;;;;;;4912211;23;90343;-30
2023/12/01 07:33:10;;;;;;;14.15;8.73;;;-3.00;99.90;;;;;;4876076;28;89893;-31
2023/12/01 07:35:36;;;;;;;17.63;8.98;;;-3.10;99.90;;;;;;4877550;28;90343;-32
2023/12/01 07:38:04;;;;;;;17.02;9.60;;;-3.20;99.90;;;;;;4880261;28;92102;-32
2023/12/01 07:40:31;;;;;;;14.43;7.57;;;-3.20;99.90;;;;;;4879779;28;87818;-33
2023/12/01 07:42:57;;;;;;;23.77;12.27;;;-3.20;99.90;;;;;;4880385;28;90090;-34
2023/12/01 07:45:23;;;;;;;20.55;10.00;;;-3.20;99.90;;;;;;4879136;28;89671;-30
2023/12/01 07:47:53;;;;;;;19.10;9.93;;;-3.20;99.90;;;;;;4882808;28;89313;-32
2023/12/01 07:50:19;;;;;;;18.23;9.75;;;-3.20;99.90;;;;;;4882912;28;88803;-33
2023/12/01 07:52:49;;;;;;;17.15;10.93;;;-3.20;99.90;;;;;;4884207;28;90339;-35
2023/12/01 07:55:16;;;;;;;19.70;12.23;;;-3.20;99.90;;;;;;4880436;28;89478;-33
2023/12/01 07:57:42;;;;;;;14.00;7.95;;;-3.20;99.90;;;;;;4883023;28;89460;-33
2023/12/01 08:00:16;;;;;;;16.77;8.30;;;-3.20;99.90;;;;;;4875231;28;90413;-30
2023/12/01 08:02:42;;;;;;;19.20;11.82;;;-3.20;99.90;;;;;;4882778;28;90488;-33
2023/12/01 08:05:13;;;;;;;16.48;11.07;;;-3.10;99.90;;;;;;4882046;28;89560;-30
2023/12/01 08:07:41;;;;;;;15.27;9.35;;;-3.10;99.90;;;;;;4879677;28;89731;-30
2023/12/01 08:10:07;;;;;;;18.73;10.05;;;-3.10;99.90;;;;;;4881550;28;88309;-32
2023/12/01 08:12:33;;;;;;;15.63;9.80;;;-3.10;99.90;;;;;;4882390;28;91027;-32
2023/12/01 08:14:59;;;;;;;14.98;9.82;;;-3.10;99.90;;;;;;4882714;28;89898;-30
2023/12/01 08:17:25;;;;;;;18.48;9.45;;;-3.00;99.90;;;;;;4871550;28;89828;-31
2023/12/01 08:19:51;;;;;;;18.48;10.23;;;-2.90;99.90;;;;;;4876116;28;89039;-32
2023/12/01 08:22:17;;;;;;;17.20;11.20;;;-2.90;99.90;;;;;;4865026;28;91090;-30
2023/12/01 08:24:45;;;;;;;23.65;13.20;;;-2.90;99.90;;;;;;4868455;28;90938;-31
2023/12/01 08:27:11;;;;;;;17.90;8.82;;;-2.90;99.90;;;;;;4867697;28;90118;-30
2023/12/01 08:29:37;;;;;;;23.05;10.90;;;-2.90;99.90;;;;;;4881149;28;88685;-31
2023/12/01 08:32:03;;;;;;;16.33;9.57;;;-3.00;99.90;;;;;;4879654;28;90641;-33
2023/12/01 08:34:29;;;;;;;15.02;9.00;;;-3.00;99.90;;;;;;4862172;28;89947;-33
2023/12/01 08:36:54;;;;;;;17.60;8.93;;;-2.90;99.90;;;;;;4861737;28;90151;-36
2023/12/01 08:39:20;;;;;;;13.82;8.18;;;-2.70;99.90;;;;;;4868937;28;87968;-33
2023/12/01 08:41:46;;;;;;;21.95;9.52;;;-2.70;99.90;;;;;;4878831;28;90385;-30
2023/12/01 08:44:12;;;;;;;18.40;9.70;;;-2.60;99.90;;;;;;4879985;28;89615;-34
2023/12/01 08:46:37;;;;;;;19.67;8.35;;;-2.60;99.90;;;;;;4880688;28;90008;-33
2023/12/01 08:49:03;;;;;;;14.15;7.57;;;-2.60;99.90;;;;;;4879809;28;89764;-31
2023/12/01 08:51:29;;;;;;;17.02;8.95;;;-2.60;99.90;;;;;;4880433;28;89155;-33
2023/12/01 08:53:54;;;;;;;19.23;9.55;;;-2.40;99.90;;;;;;4879534;28;90079;-34
2023/12/01 08:56:20;;;;;;;13.13;8.85;;;-2.30;99.90;;;;;;4880066;28;89959;-32
2023/12/01 08:58:46;;;;;;;23.60;11.82;;;-2.50;99.90;;;;;;4880766;28;89378;-33
2023/12/01 09:01:11;;;;;;;20.95;9.20;;;-2.40;99.90;;;;;;4879019;28;90306;-31
2023/12/01 09:03:37;;;;;;;11.98;8.07;;;-2.50;99.90;;;;;;4879826;28;94633;-33
2023/12/01 09:06:03;;;;;;;18.42;9.98;;;-2.40;99.90;;;;;;4879212;28;94266;-30
2023/12/01 09:08:29;;;;;;;12.95;6.28;;;-2.30;99.90;;;;;;4880473;28;92161;-30
2023/12/01 09:10:54;;;;;;;18.85;9.55;;;-2.40;99.90;;;;;;4873868;28;94474;-30
2023/12/01 09:13:20;;;;;;;24.58;10.70;;;-2.20;99.90;;;;;;4877345;28;95617;-34
2023/12/01 09:15:46;;;;;;;22.27;12.52;;;-2.20;99.90;;;;;;4878883;28;95100;-30
2023/12/01 09:18:12;;;;;;;15.63;8.20;;;-2.20;99.90;;;;;;4879045;28;94668;-30
2023/12/01 09:20:38;;;;;;;16.63;9.93;;;-2.20;99.90;;;;;;4877781;28;94542;-30
2023/12/01 09:23:05;;;;;;;17.08;11.18;;;-2.20;99.90;;;;;;4880293;28;94419;-34
2023/12/01 09:25:31;;;;;;;16.23;10.20;;;-2.10;99.90;;;;;;4878239;28;94064;-29
2023/12/01 09:27:57;;;;;;;19.05;10.93;;;-2.20;99.90;;;;;;4879363;28;94431;-31
2023/12/01 09:30:23;;;;;;;18.27;8.07;;;-2.30;99.90;;;;;;4879536;28;91579;-29
2023/12/01 09:32:48;;;;;;;15.88;9.82;;;-2.20;99.90;;;;;;4893737;28;94537;-31
2023/12/01 09:35:15;;;;;;;13.10;8.95;;;-2.20;99.90;;;;;;4880288;28;94605;-30
2023/12/01 09:37:42;;;;;;;19.30;9.15;;;-2.10;99.90;;;;;;4872890;28;94823;-30
2023/12/01 09:40:08;;;;;;;23.45;10.63;;;-2.10;99.90;;;;;;4873176;28;93570;-34
2023/12/01 09:42:37;;;;;;;19.45;9.93;;;-2.00;99.90;;;;;;4867321;28;95142;-30
2023/12/01 09:45:03;;;;;;;20.63;9.52;;;-2.10;99.90;;;;;;4878864;28;94389;-31
2023/12/01 09:47:32;;;;;;;21.00;9.82;;;-2.10;99.90;;;;;;4880196;28;93710;-31
2023/12/01 09:49:58;;;;;;;16.50;8.50;;;-2.10;99.90;;;;;;4878742;28;94710;-34
2023/12/01 09:52:23;;;;;;;18.77;13.23;;;-2.10;99.90;;;;;;4872242;28;94898;-31
2023/12/01 09:54:49;;;;;;;18.30;12.50;;;-2.10;99.90;;;;;;4861333;28;94651;-32
2023/12/01 09:57:16;;;;;;;17.40;10.27;;;-2.10;99.90;;;;;;4879379;28;94149;-33
2023/12/01 09:59:44;;;;;;;21.58;12.73;;;-2.00;99.90;;;;;;4877091;28;92242;-31
2023/12/01 10:02:10;;;;;;;18.75;9.65;;;-1.90;99.90;;;;;;4859010;28;95508;-30
2023/12/01 10:04:35;;;;;;;17.80;10.82;;;-1.90;99.90;;;;;;4860297;28;95449;-34
2023/12/01 10:07:03;;;;;;;26.48;11.73;;;-1.80;99.90;;;;;;4860134;28;94665;-31
2023/12/01 10:09:32;;;;;;;21.97;11.13;;;-1.70;99.90;;;;;;4859244;28;93455;-33
2023/12/01 10:12:08;;;;;;;20.45;11.43;;;-1.70;99.90;;;;;;4859865;28;94236;-30
2023/12/01 10:14:37;;;;;;;16.08;10.23;;;-1.60;99.90;;;;;;4876988;28;94694;-31
2023/12/01 10:17:07;;;;;;;9.38;7.38;;;-1.50;99.90;;;;;;4878827;28;93428;-30
2023/12/01 10:19:34;;;;;;;17.02;9.63;;;-1.50;99.90;;;;;;4872834;28;92303;-31
2023/12/01 10:22:02;;;;;;;18.25;9.82;;;-1.50;99.90;;;;;;4877870;28;94488;-31
2023/12/01 10:24:28;;;;;;;11.90;6.88;;;-1.40;99.90;;;;;;4877817;28;94862;-33
2023/12/01 10:26:55;;;;;;;13.73;7.65;;;-1.30;99.90;;;;;;4876481;28;93686;-32
2023/12/01 10:29:30;;;;;;;12.85;8.32;;;-1.20;99.90;;;;;;4878301;28;94759;-31
2023/12/01 10:32:04;;;;;;;20.05;9.63;;;-1.20;99.90;;;;;;4878515;28;95135;-30
2023/12/01 10:34:30;;;;;;;9.43;5.47;;;-1.20;99.90;;;;;;4872156;28;94262;-31
2023/12/01 10:36:56;;;;;;;12.68;8.07;;;-1.30;99.90;;;;;;4873108;28;95128;-31
2023/12/01 10:39:29;;;;;;;12.90;9.07;;;-1.30;99.90;;;;;;4877926;28;93280;-31
2023/12/01 10:41:56;;;;;;;20.83;9.90;;;-1.30;99.90;;;;;;4877792;28;94145;-30
2023/12/01 10:44:27;;;;;;;17.27;9.45;;;-1.30;99.90;;;;;;4879374;28;94703;-30
2023/12/01 10:46:54;;;;;;;11.95;10.02;;;-1.30;99.90;;;;;;4878347;28;92639;-34
2023/12/01 10:49:21;;;;;;;12.90;8.45;;;-1.30;99.90;;;;;;4878586;28;94279;-29
2023/12/01 10:51:55;;;;;;;14.10;8.38;;;-1.20;99.90;;;;;;4877275;28;95138;-30
2023/12/01 10:54:23;;;;;;;8.68;7.75;;;-1.30;99.90;;;;;;4877742;28;95238;-31
2023/12/01 10:57:14;;;;;;;14.82;6.78;;;-1.30;99.90;;;;;;4877991;28;92575;-30
2023/12/01 10:59:44;;;;;;;13.52;8.45;;;-1.30;99.90;;;;;;4879263;28;94122;-34
2023/12/01 11:02:13;;;;;;;15.00;9.38;;;-1.30;99.90;;;;;;4866416;28;95131;-33
2023/12/01 11:04:44;;;;;;;12.27;7.75;;;-1.30;99.90;;;;;;4877639;28;94931;-30
2023/12/01 11:07:29;;;;;;;16.45;8.48;;;-1.30;99.90;;;;;;4879294;28;93401;-29
2023/12/01 11:10:26;;;;;;;15.68;9.68;;;-1.30;99.90;;;;;;4877410;28;92052;-31
2023/12/01 11:13:16;;;;;;;17.92;9.05;;;-1.30;99.90;;;;;;4878213;28;94861;-30
2023/12/01 11:15:43;;;;;;;13.70;7.63;;;-1.30;99.90;;;;;;4878210;28;94666;-30
2023/12/01 11:18:10;;;;;;;12.30;7.13;;;-1.30;99.90;;;;;;4877551;28;95238;-33
2023/12/01 11:20:44;;;;;;;14.10;8.50;;;-1.20;99.90;;;;;;4878756;28;93435;-31
2023/12/01 11:23:13;;;;;;;10.75;6.43;;;-1.10;99.90;;;;;;4869520;28;94767;-32
2023/12/01 11:25:50;;;;;;;13.82;9.43;;;-1.10;99.90;;;;;;4880103;28;94692;-30
2023/12/01 11:28:23;;;;;;;15.68;6.60;;;-1.20;99.90;;;;;;4883135;28;93348;-31
2023/12/01 11:33:58;;;;;;;21.55;9.70;;;-1.10;99.90;;;;;;4836023;29;94938;-32
2023/12/01 11:36:25;;;;;;;16.73;5.75;;;-1.10;99.90;;;;;;4876532;28;94112;-33
2023/12/01 11:41:44;;;;;;;13.52;6.93;;;-1.10;99.90;;;;;;4860990;28;92951;-30
2023/12/01 11:44:10;;;;;;;16.85;7.97;;;-1.00;99.90;;;;;;4865950;28;95757;-29
2023/12/01 11:46:39;;;;;;;14.30;9.48;;;-1.00;99.90;;;;;;4866242;28;95332;-32
2023/12/01 11:49:08;;;;;;;15.32;8.60;;;-1.00;99.90;;;;;;4879148;28;93407;-33
2023/12/01 11:51:34;;;;;;;16.50;8.77;;;-1.00;99.90;;;;;;4870216;28;93248;-32
2023/12/01 11:54:01;;;;;;;13.25;8.75;;;-0.90;99.90;;;;;;4875950;28;94582;-34
2023/12/01 11:56:31;;;;;;;13.50;9.32;;;-1.00;99.90;;;;;;4871737;28;94548;-32
2023/12/01 11:58:57;;;;;;;16.75;10.82;;;-0.90;99.90;;;;;;4876674;28;93426;-32
2023/12/01 12:01:24;;;;;;;18.55;11.30;;;-0.80;99.90;;;;;;4870580;28;94179;-30
2023/12/01 12:03:53;;;;;;;17.98;11.63;;;-0.80;99.90;;;;;;4874626;28;94868;-31
2023/12/01 12:06:23;;;;;;;23.75;10.88;;;-0.80;99.90;;;;;;4874781;28;94251;-30
2023/12/01 12:08:50;;;;;;;16.23;9.50;;;-0.90;99.90;;;;;;4873281;28;94505;-31
2023/12/01 12:11:17;;;;;;;25.98;12.57;;;-0.90;99.90;;;;;;4872456;28;94263;-33
2023/12/01 12:13:43;;;;;;;12.10;9.77;;;-0.80;99.90;;;;;;4872921;28;94697;-30
2023/12/01 12:16:10;;;;;;;19.73;12.13;;;-0.70;99.90;;;;;;4874406;28;94381;-30
2023/12/01 12:18:36;;;;;;;21.75;10.70;;;-0.70;99.90;;;;;;4871333;28;93360;-31
2023/12/01 12:21:04;;;;;;;23.60;11.93;;;-0.70;99.90;;;;;;4871252;28;93821;-33
2023/12/01 12:23:31;;;;;;;17.48;8.32;;;-0.70;99.90;;;;;;4869827;28;94715;-32
2023/12/01 12:26:33;;;;;;;16.90;9.63;;;-0.70;99.90;;;;;;4873753;28;94503;-30
2023/12/01 12:29:04;;;;;;;23.27;11.73;;;-0.60;99.90;;;;;;4834659;29;92291;-30
2023/12/01 12:31:35;;;;;;;18.70;13.40;;;-0.60;99.90;;;;;;4871105;28;94035;-32
2023/12/01 12:34:03;;;;;;;16.40;10.15;;;-0.70;99.90;;;;;;4876201;28;95253;-30
2023/12/01 12:36:31;;;;;;;15.95;10.60;;;-0.70;99.90;;;;;;4877804;28;95958;-32